createdAt,value
2022-09-23T00:01:29.690Z,7.78
2022-09-23T00:03:59.831Z,7.74
2022-09-23T00:06:30.823Z,7.68
2022-09-23T00:08:58.974Z,7.61
2022-09-23T00:11:28.656Z,7.57
2022-09-23T00:13:59.935Z,7.52
2022-09-23T00:16:34.164Z,7.49
2022-09-23T00:19:04.048Z,7.45
2022-09-23T00:21:32.202Z,7.43
2022-09-23T00:24:00.386Z,7.40
2022-09-23T00:26:28.707Z,7.39
2022-09-23T00:28:56.896Z,7.38
2022-09-23T00:31:27.447Z,7.36
2022-09-23T00:34:01.587Z,7.33
2022-09-23T00:36:32.359Z,7.31
2022-09-23T00:39:00.641Z,7.28
2022-09-23T00:41:28.893Z,7.25
2022-09-23T00:44:00.449Z,7.23
2022-09-23T00:46:43.699Z,7.20
2022-09-23T00:49:30.928Z,7.17
2022-09-23T00:52:09.282Z,7.17
2022-09-23T00:54:38.093Z,7.12
2022-09-23T00:57:07.021Z,7.11
2022-09-23T00:59:36.470Z,7.10
2022-09-23T01:02:05.875Z,7.07
2022-09-23T01:04:34.881Z,7.03
2022-09-23T01:07:03.063Z,7.00
2022-09-23T01:09:31.316Z,6.99
2022-09-23T01:12:27.247Z,6.97
2022-09-23T01:15:32.605Z,6.95
2022-09-23T01:18:41.499Z,6.93
2022-09-23T01:21:39.851Z,6.89
2022-09-23T01:24:26.272Z,6.89
2022-09-23T01:27:17.834Z,6.90
2022-09-23T01:30:13.013Z,6.91
2022-09-23T01:33:25.409Z,6.92
2022-09-23T01:36:23.003Z,6.94
2022-09-23T01:39:00.256Z,6.95
2022-09-23T01:41:47.205Z,6.94
2022-09-23T01:44:29.492Z,6.95
2022-09-23T01:47:02.452Z,6.97
2022-09-23T01:50:30.531Z,6.98
2022-09-23T01:53:06.357Z,7.02
2022-09-23T01:55:41.167Z,7.04
2022-09-23T01:58:31.908Z,7.06
2022-09-23T02:01:05.110Z,7.10
2022-09-23T02:03:59.744Z,7.13
2022-09-23T02:06:35.833Z,7.17
2022-09-23T02:09:16.432Z,7.18
2022-09-23T02:11:48.748Z,7.18
2022-09-23T02:14:31.484Z,7.19
2022-09-23T02:17:09.112Z,7.21
2022-09-23T02:19:55.799Z,7.23
2022-09-23T02:22:40.889Z,7.25
2022-09-23T02:25:12.514Z,7.28
2022-09-23T02:28:02.495Z,7.28
2022-09-23T02:30:41.956Z,7.28
2022-09-23T02:33:46.358Z,7.26
2022-09-23T02:36:31.525Z,7.25
2022-09-23T02:39:08.745Z,7.23
2022-09-23T02:42:02.513Z,7.23
2022-09-23T02:44:33.083Z,7.23
2022-09-23T02:47:01.285Z,7.24
2022-09-23T02:49:32.171Z,7.23
2022-09-23T02:52:05.616Z,7.24
2022-09-23T02:54:35.532Z,7.33
2022-09-23T02:57:07.125Z,7.42
2022-09-23T02:59:37.058Z,7.50
2022-09-23T03:02:33.032Z,7.57
2022-09-23T03:05:09.900Z,7.63
2022-09-23T03:08:12.987Z,7.69
2022-09-23T03:11:13.116Z,7.75
2022-09-23T03:14:29.065Z,7.81
2022-09-23T03:17:12.772Z,7.84
2022-09-23T03:19:50.799Z,7.86
2022-09-23T03:22:27.312Z,7.90
2022-09-23T03:25:02.184Z,7.94
2022-09-23T03:27:33.044Z,7.99
2022-09-23T03:30:02.665Z,8.02
2022-09-23T03:32:32.375Z,8.05
2022-09-23T03:35:03.299Z,8.07
2022-09-23T03:37:54.114Z,8.11
2022-09-23T03:40:30.199Z,8.16
2022-09-23T03:43:01.566Z,8.19
2022-09-23T03:45:34.388Z,8.22
2022-09-23T03:48:02.622Z,8.24
2022-09-23T03:50:30.780Z,8.26
2022-09-23T03:52:59.397Z,8.28
2022-09-23T03:55:27.818Z,8.31
2022-09-23T03:57:55.978Z,8.32
2022-09-23T04:00:24.078Z,8.33
2022-09-23T04:02:52.316Z,8.33
2022-09-23T04:05:20.413Z,8.31
2022-09-23T04:07:49.243Z,8.29
2022-09-23T04:10:17.383Z,8.28
2022-09-23T04:12:45.505Z,8.28
2022-09-23T04:15:13.634Z,8.27
2022-09-23T04:17:41.958Z,8.26
2022-09-23T04:20:10.249Z,8.24
2022-09-23T04:22:38.731Z,8.26
2022-09-23T04:25:08.153Z,8.25
2022-09-23T04:27:37.860Z,8.23
2022-09-23T04:30:07.384Z,8.24
2022-09-23T04:32:37.093Z,8.25
2022-09-23T04:35:06.697Z,8.28
2022-09-23T04:37:34.929Z,8.29
2022-09-23T04:40:03.997Z,8.32
2022-09-23T04:42:32.263Z,8.32
2022-09-23T04:45:00.461Z,8.35
2022-09-23T04:47:28.667Z,8.38
2022-09-23T04:49:59.879Z,8.40
2022-09-23T04:52:31.308Z,8.44
2022-09-23T04:54:59.396Z,8.49
2022-09-23T04:57:28.261Z,8.53
2022-09-23T04:59:57.525Z,8.59
2022-09-23T05:02:25.784Z,8.65
2022-09-23T05:04:55.052Z,8.70
2022-09-23T05:07:23.128Z,8.75
2022-09-23T05:09:51.249Z,8.82
2022-09-23T05:12:19.330Z,8.87
2022-09-23T05:14:47.452Z,8.92
2022-09-23T05:17:15.581Z,8.98
2022-09-23T05:19:43.683Z,9.02
2022-09-23T05:22:11.798Z,9.06
2022-09-23T05:24:39.898Z,9.10
2022-09-23T05:27:08.059Z,9.14
2022-09-23T05:29:36.220Z,9.16
2022-09-23T05:32:04.789Z,9.21
2022-09-23T05:34:33.089Z,9.23
2022-09-23T05:37:01.210Z,9.21
2022-09-23T05:39:29.496Z,9.19
2022-09-23T05:42:00.075Z,9.18
2022-09-23T05:44:28.216Z,9.17
2022-09-23T05:46:56.547Z,9.15
2022-09-23T05:49:37.932Z,9.12
2022-09-23T05:52:12.932Z,9.10
2022-09-23T05:54:41.349Z,9.09
2022-09-23T05:57:09.580Z,9.10
2022-09-23T05:59:38.296Z,9.11
2022-09-23T06:02:06.795Z,9.11
2022-09-23T06:04:35.123Z,9.12
2022-09-23T06:07:03.816Z,9.13
2022-09-23T06:09:36.364Z,9.15
2022-09-23T06:12:06.505Z,9.17
2022-09-23T06:14:34.773Z,9.19
2022-09-23T06:17:02.930Z,9.22
2022-09-23T06:19:31.083Z,9.26
2022-09-23T06:21:59.166Z,9.29
2022-09-23T06:24:31.114Z,9.32
2022-09-23T06:27:01.137Z,9.35
2022-09-23T06:29:32.386Z,9.39
2022-09-23T06:32:00.804Z,9.44
2022-09-23T06:34:29.380Z,9.48
2022-09-23T06:36:59.730Z,9.53
2022-09-23T06:39:30.166Z,9.58
2022-09-23T06:41:58.274Z,9.64
2022-09-23T06:44:28.796Z,9.70
2022-09-23T06:46:57.144Z,9.76
2022-09-23T06:49:25.287Z,9.83
2022-09-23T06:51:53.420Z,9.89
2022-09-23T06:54:21.736Z,9.98
2022-09-23T06:56:49.844Z,10.08
2022-09-23T06:59:18.407Z,10.17
2022-09-23T07:01:48.215Z,10.26
2022-09-23T07:04:16.692Z,10.38
2022-09-23T07:06:44.819Z,10.49
2022-09-23T07:09:12.907Z,10.60
2022-09-23T07:11:41.037Z,10.71
2022-09-23T07:14:10.199Z,10.81
2022-09-23T07:16:38.282Z,10.89
2022-09-23T07:19:06.506Z,10.96
2022-09-23T07:21:34.802Z,11.04
2022-09-23T07:24:03.024Z,11.11
2022-09-23T07:26:34.214Z,11.20
2022-09-23T07:29:06.686Z,11.30
2022-09-23T07:31:39.791Z,11.38
2022-09-23T07:34:11.582Z,11.47
2022-09-23T07:36:43.410Z,11.55
2022-09-23T07:39:13.651Z,11.66
2022-09-23T07:41:44.632Z,11.76
2022-09-23T07:44:13.228Z,11.84
2022-09-23T07:46:41.765Z,11.92
2022-09-23T07:49:10.748Z,11.97
2022-09-23T07:51:41.940Z,12.05
2022-09-23T07:54:16.531Z,12.14
2022-09-23T07:56:45.212Z,12.19
2022-09-23T07:59:18.525Z,12.20
2022-09-23T08:01:52.727Z,12.20
2022-09-23T08:04:23.887Z,12.23
2022-09-23T08:06:56.069Z,12.25
2022-09-23T08:09:31.823Z,12.31
2022-09-23T08:12:00.816Z,12.42
2022-09-23T08:14:29.019Z,12.50
2022-09-23T08:16:57.550Z,12.52
2022-09-23T08:19:25.945Z,12.50
2022-09-23T08:21:54.428Z,12.52
2022-09-23T08:24:24.237Z,12.54
2022-09-23T08:26:54.365Z,12.60
2022-09-23T08:29:25.076Z,12.68
2022-09-23T08:31:53.808Z,12.77
2022-09-23T08:34:23.761Z,12.86
2022-09-23T08:36:52.473Z,12.93
2022-09-23T08:39:21.498Z,13.01
2022-09-23T08:41:57.534Z,13.11
2022-09-23T08:44:54.084Z,13.16
2022-09-23T08:47:43.813Z,13.21
2022-09-23T08:50:53.708Z,13.27
2022-09-23T08:53:38.946Z,13.30
2022-09-23T08:56:24.121Z,13.32
2022-09-23T08:59:19.168Z,13.28
2022-09-23T09:02:00.397Z,13.27
2022-09-23T09:04:43.132Z,13.27
2022-09-23T09:07:37.294Z,13.25
2022-09-23T09:10:24.229Z,13.25
2022-09-23T09:13:12.319Z,13.24
2022-09-23T09:15:50.972Z,13.26
2022-09-23T09:18:21.110Z,13.26
2022-09-23T09:21:12.736Z,13.32
2022-09-23T09:23:55.961Z,13.41
2022-09-23T09:26:32.146Z,13.42
2022-09-23T09:29:31.167Z,13.46
2022-09-23T09:32:18.513Z,13.49
2022-09-23T09:34:59.452Z,13.53
2022-09-23T09:37:44.687Z,13.55
2022-09-23T09:40:16.436Z,13.51
2022-09-23T09:42:50.136Z,13.50
2022-09-23T09:46:11.042Z,13.52
2022-09-23T09:48:56.430Z,13.63
2022-09-23T09:51:27.840Z,13.71
2022-09-23T09:54:17.422Z,13.72
2022-09-23T09:56:45.645Z,13.77
2022-09-23T09:59:25.130Z,13.79
2022-09-23T10:02:13.605Z,13.84
2022-09-23T10:04:41.822Z,13.95
2022-09-23T10:07:16.993Z,14.08
2022-09-23T10:09:50.620Z,14.21
2022-09-23T10:12:22.209Z,14.34
2022-09-23T10:14:56.324Z,14.37
2022-09-23T10:17:34.683Z,14.36
2022-09-23T10:20:15.581Z,14.24
2022-09-23T10:22:44.089Z,14.17
2022-09-23T10:25:27.589Z,14.15
2022-09-23T10:27:55.658Z,14.04
2022-09-23T10:30:28.480Z,13.95
2022-09-23T10:32:57.291Z,13.94
2022-09-23T10:35:26.724Z,14.00
2022-09-23T10:38:00.300Z,14.03
2022-09-23T10:41:00.259Z,14.01
2022-09-23T10:44:11.748Z,14.01
2022-09-23T10:46:59.386Z,14.00
2022-09-23T10:49:49.981Z,14.00
2022-09-23T10:52:59.435Z,14.04
2022-09-23T10:55:50.732Z,14.10
2022-09-23T10:58:58.328Z,14.24
2022-09-23T11:02:31.341Z,14.40
2022-09-23T11:05:15.357Z,14.56
2022-09-23T11:08:00.431Z,14.61
2022-09-23T11:10:46.624Z,14.65
2022-09-23T11:13:54.623Z,14.64
2022-09-23T11:16:39.145Z,14.61
2022-09-23T11:20:14.883Z,14.50
2022-09-23T11:23:22.188Z,14.32
2022-09-23T11:26:35.114Z,14.18
2022-09-23T11:29:21.398Z,14.12
2022-09-23T11:32:23.111Z,14.12
2022-09-23T11:35:16.324Z,14.08
2022-09-23T11:38:21.445Z,14.06
2022-09-23T11:40:54.845Z,14.05
2022-09-23T11:43:33.599Z,14.07
2022-09-23T11:46:41.630Z,14.10
2022-09-23T11:49:12.613Z,14.12
2022-09-23T11:52:19.773Z,14.18
2022-09-23T11:55:08.326Z,14.32
2022-09-23T11:57:53.686Z,14.50
2022-09-23T12:00:25.120Z,14.65
2022-09-23T12:03:54.189Z,14.75
2022-09-23T12:06:36.944Z,14.81
2022-09-23T12:09:41.018Z,14.81
2022-09-23T12:12:55.195Z,14.75
2022-09-23T12:15:41.665Z,14.63
2022-09-23T12:18:23.333Z,14.49
2022-09-23T12:21:32.778Z,14.37
2022-09-23T12:24:32.406Z,14.34
2022-09-23T12:27:07.125Z,14.36
2022-09-23T12:29:37.451Z,14.37
2022-09-23T12:32:10.158Z,14.38
2022-09-23T12:34:48.008Z,14.40
2022-09-23T12:37:38.840Z,14.44
2022-09-23T12:40:30.321Z,14.38
2022-09-23T12:43:01.268Z,14.36
2022-09-23T12:45:33.836Z,14.38
2022-09-23T12:48:18.187Z,14.38
2022-09-23T12:51:15.875Z,14.39
2022-09-23T12:53:58.328Z,14.42
2022-09-23T12:56:38.731Z,14.47
2022-09-23T12:59:14.090Z,14.53
2022-09-23T13:01:43.973Z,14.58
2022-09-23T13:05:02.422Z,14.64
2022-09-23T13:07:34.203Z,14.68
2022-09-23T13:10:18.508Z,14.70
2022-09-23T13:12:48.211Z,14.72
2022-09-23T13:15:31.155Z,14.75
2022-09-23T13:18:20.829Z,14.75
2022-09-23T13:20:51.652Z,14.72
2022-09-23T13:23:24.064Z,14.72
2022-09-23T13:26:02.224Z,14.70
2022-09-23T13:28:37.173Z,14.67
2022-09-23T13:31:17.164Z,14.65
2022-09-23T13:34:06.810Z,14.61
2022-09-23T13:36:45.732Z,14.59
2022-09-23T13:39:16.804Z,14.59
2022-09-23T13:41:45.854Z,14.60
2022-09-23T13:44:20.226Z,14.55
2022-09-23T13:46:58.190Z,14.50
2022-09-23T13:49:32.471Z,14.46
2022-09-23T13:52:02.103Z,14.45
2022-09-23T13:54:45.832Z,14.42
2022-09-23T13:57:35.012Z,14.40
2022-09-23T14:00:21.002Z,14.33
2022-09-23T14:02:49.128Z,14.26
2022-09-23T14:05:33.324Z,14.19
2022-09-23T14:08:02.617Z,14.14
2022-09-23T14:10:31.400Z,14.12
2022-09-23T14:12:59.792Z,14.10
2022-09-23T14:15:28.041Z,14.06
2022-09-23T14:18:07.702Z,14.04
2022-09-23T14:20:50.354Z,14.04
2022-09-23T14:23:18.897Z,14.06
2022-09-23T14:25:47.732Z,14.05
2022-09-23T14:28:20.317Z,14.03
2022-09-23T14:30:54.092Z,14.03
2022-09-23T14:33:41.567Z,14.01
2022-09-23T14:36:34.512Z,13.98
2022-09-23T14:39:05.517Z,13.96
2022-09-23T14:41:43.883Z,13.94
2022-09-23T14:44:23.204Z,13.92
2022-09-23T14:46:58.514Z,13.91
2022-09-23T14:49:27.875Z,13.88
2022-09-23T14:52:03.169Z,13.87
2022-09-23T14:54:41.632Z,13.82
2022-09-23T14:57:31.933Z,13.77
2022-09-23T15:00:02.558Z,13.73
2022-09-23T15:02:40.272Z,13.70
2022-09-23T15:05:15.841Z,13.67
2022-09-23T15:07:56.126Z,13.59
2022-09-23T15:10:33.742Z,13.44
2022-09-23T15:13:09.323Z,13.23
2022-09-23T15:15:37.659Z,13.06
2022-09-23T15:18:20.493Z,12.89
2022-09-23T15:21:10.241Z,12.72
2022-09-23T15:23:41.974Z,12.60
2022-09-23T15:27:01.633Z,12.53
2022-09-23T15:29:33.508Z,12.50
2022-09-23T15:32:02.060Z,12.48
2022-09-23T15:34:31.799Z,12.47
2022-09-23T15:37:00.116Z,12.44
2022-09-23T15:39:35.704Z,12.40
2022-09-23T15:42:06.069Z,12.32
2022-09-23T15:44:35.341Z,12.23
2022-09-23T15:47:04.455Z,12.19
2022-09-23T15:49:39.200Z,12.15
2022-09-23T15:52:10.651Z,12.08
2022-09-23T15:54:39.319Z,12.01
2022-09-23T15:57:07.712Z,11.97
2022-09-23T15:59:38.277Z,11.94
2022-09-23T16:02:21.310Z,11.91
2022-09-23T16:04:52.618Z,11.87
2022-09-23T16:07:21.403Z,11.85
2022-09-23T16:09:49.511Z,11.80
2022-09-23T16:12:17.785Z,11.77
2022-09-23T16:14:45.967Z,11.75
2022-09-23T16:17:14.751Z,11.74
2022-09-23T16:19:43.856Z,11.71
2022-09-23T16:22:16.086Z,11.67
2022-09-23T16:24:44.182Z,11.64
2022-09-23T16:27:18.545Z,11.63
2022-09-23T16:29:46.641Z,11.61
2022-09-23T16:32:16.916Z,11.58
2022-09-23T16:34:48.332Z,11.56
2022-09-23T16:37:16.779Z,11.54
2022-09-23T16:39:45.077Z,11.54
2022-09-23T16:42:13.467Z,11.54
2022-09-23T16:44:41.709Z,11.55
2022-09-23T16:47:09.841Z,11.55
2022-09-23T16:49:38.058Z,11.55
2022-09-23T16:52:06.505Z,11.56
2022-09-23T16:54:37.408Z,11.53
2022-09-23T16:57:05.525Z,11.53
2022-09-23T16:59:53.644Z,11.53
2022-09-23T17:02:40.375Z,11.52
2022-09-23T17:05:11.099Z,11.51
2022-09-23T17:07:39.204Z,11.51
2022-09-23T17:10:08.369Z,11.49
2022-09-23T17:12:36.710Z,11.48
2022-09-23T17:15:07.500Z,11.47
2022-09-23T17:17:39.633Z,11.46
2022-09-23T17:20:08.181Z,11.43
2022-09-23T17:22:36.415Z,11.42
2022-09-23T17:25:05.277Z,11.41
2022-09-23T17:27:33.381Z,11.39
2022-09-23T17:30:01.593Z,11.37
2022-09-23T17:32:30.072Z,11.36
2022-09-23T17:35:04.420Z,11.35
2022-09-23T17:37:33.329Z,11.33
2022-09-23T17:40:01.855Z,11.30
2022-09-23T17:42:30.035Z,11.27
2022-09-23T17:44:59.351Z,11.25
2022-09-23T17:47:27.614Z,11.23
2022-09-23T17:49:56.353Z,11.21
2022-09-23T17:52:24.492Z,11.18
2022-09-23T17:54:55.095Z,11.15
2022-09-23T17:57:23.315Z,11.10
2022-09-23T17:59:53.764Z,11.07
2022-09-23T18:02:22.631Z,11.03
2022-09-23T18:04:51.010Z,10.99
2022-09-23T18:07:19.224Z,10.94
2022-09-23T18:09:47.324Z,10.89
2022-09-23T18:12:16.273Z,10.87
2022-09-23T18:14:45.354Z,10.85
2022-09-23T18:17:13.477Z,10.82
2022-09-23T18:19:41.618Z,10.81
2022-09-23T18:22:09.822Z,10.80
2022-09-23T18:24:41.139Z,10.79
2022-09-23T18:27:09.610Z,10.77
2022-09-23T18:29:37.737Z,10.73
2022-09-23T18:32:05.968Z,10.69
2022-09-23T18:34:34.385Z,10.65
2022-09-23T18:37:02.482Z,10.59
2022-09-23T18:39:30.598Z,10.55
2022-09-23T18:41:58.773Z,10.52
2022-09-23T18:44:26.879Z,10.51
2022-09-23T18:46:55.012Z,10.49
2022-09-23T18:49:41.520Z,10.46
2022-09-23T18:52:09.896Z,10.42
2022-09-23T18:54:38.000Z,10.40
2022-09-23T18:57:06.159Z,10.37
2022-09-23T18:59:34.325Z,10.33
2022-09-23T19:02:02.849Z,10.31
2022-09-23T19:04:31.804Z,10.30
2022-09-23T19:07:00.383Z,10.27
2022-09-23T19:09:28.526Z,10.26
2022-09-23T19:11:57.763Z,10.23
2022-09-23T19:14:26.762Z,10.20
2022-09-23T19:16:54.866Z,10.18
2022-09-23T19:19:23.126Z,10.16
2022-09-23T19:21:51.457Z,10.15
2022-09-23T19:24:20.988Z,10.15
2022-09-23T19:26:50.421Z,10.13
2022-09-23T19:29:19.831Z,10.11
2022-09-23T19:31:49.544Z,10.08
2022-09-23T19:34:23.794Z,10.07
2022-09-23T19:36:57.313Z,10.06
2022-09-23T19:39:31.243Z,10.06
2022-09-23T19:41:59.384Z,10.03
2022-09-23T19:44:27.880Z,9.99
2022-09-23T19:46:57.379Z,9.95
2022-09-23T19:49:26.388Z,9.91
2022-09-23T19:51:56.061Z,9.89
2022-09-23T19:54:27.429Z,9.88
2022-09-23T19:56:55.990Z,9.86
2022-09-23T19:59:26.488Z,9.86
2022-09-23T20:01:54.995Z,9.84
2022-09-23T20:04:23.329Z,9.83
2022-09-23T20:06:51.602Z,9.84
2022-09-23T20:09:19.993Z,9.86
2022-09-23T20:11:48.204Z,9.85
2022-09-23T20:14:19.512Z,9.84
2022-09-23T20:16:47.632Z,9.85
2022-09-23T20:19:16.141Z,9.95
2022-09-23T20:21:44.257Z,10.05
2022-09-23T20:24:13.121Z,10.13
2022-09-23T20:26:59.528Z,10.18
2022-09-23T20:29:27.627Z,10.22
2022-09-23T20:31:58.752Z,10.26
2022-09-23T20:34:29.985Z,10.31
2022-09-23T20:36:59.323Z,10.37
2022-09-23T20:39:28.387Z,10.41
2022-09-23T20:41:56.555Z,10.44
2022-09-23T20:44:25.163Z,10.45
2022-09-23T20:46:53.306Z,10.46
2022-09-23T20:49:21.461Z,10.48
2022-09-23T20:51:50.935Z,10.50
2022-09-23T20:54:19.259Z,10.51
2022-09-23T20:56:47.931Z,10.52
2022-09-23T20:59:18.128Z,10.51
2022-09-23T21:01:46.759Z,10.51
2022-09-23T21:04:15.306Z,10.51
2022-09-23T21:06:43.499Z,10.50
2022-09-23T21:09:11.647Z,10.50
2022-09-23T21:11:39.992Z,10.50
2022-09-23T21:14:08.297Z,10.51
2022-09-23T21:16:36.462Z,10.50
2022-09-23T21:19:07.457Z,10.48
2022-09-23T21:21:36.844Z,10.47
2022-09-23T21:24:39.794Z,10.45
2022-09-23T21:26:53.657Z,10.43
2022-09-23T21:29:21.910Z,10.41
2022-09-23T21:31:50.138Z,10.38
2022-09-23T21:34:19.455Z,10.35
2022-09-23T21:36:48.449Z,10.33
2022-09-23T21:39:16.677Z,10.31
2022-09-23T21:41:45.290Z,10.29
2022-09-23T21:44:13.422Z,10.28
2022-09-23T21:46:41.917Z,10.27
2022-09-23T21:49:10.132Z,10.27
2022-09-23T21:51:41.267Z,10.23
2022-09-23T21:54:16.865Z,10.19
2022-09-23T21:56:45.247Z,10.14
2022-09-23T21:59:13.341Z,10.08
2022-09-23T22:01:44.930Z,10.03
2022-09-23T22:04:17.306Z,10.00
2022-09-23T22:06:46.943Z,9.96
2022-09-23T22:09:21.013Z,9.91
2022-09-23T22:12:07.767Z,9.88
2022-09-23T22:14:36.375Z,9.84
2022-09-23T22:17:07.054Z,9.81
2022-09-23T22:19:40.183Z,9.76
2022-09-23T22:22:14.104Z,9.74
2022-09-23T22:24:44.529Z,9.73
2022-09-23T22:27:15.483Z,9.72
2022-09-23T22:30:02.367Z,9.73
2022-09-23T22:33:07.092Z,9.72
2022-09-23T22:35:35.201Z,9.62
2022-09-23T22:38:03.330Z,9.55
2022-09-23T22:40:31.470Z,9.48
2022-09-23T22:43:01.156Z,9.42
2022-09-23T22:45:29.326Z,9.34
2022-09-23T22:47:57.536Z,9.28
2022-09-23T22:50:25.627Z,9.23
2022-09-23T22:52:54.049Z,9.15
2022-09-23T22:55:22.258Z,9.05
2022-09-23T22:57:51.580Z,8.97
2022-09-23T23:00:19.908Z,8.91
2022-09-23T23:02:48.000Z,8.83
2022-09-23T23:05:16.174Z,8.76
2022-09-23T23:07:44.281Z,8.70
2022-09-23T23:10:12.388Z,8.66
2022-09-23T23:12:42.088Z,8.64
2022-09-23T23:15:12.873Z,8.62
2022-09-23T23:17:48.015Z,8.57
2022-09-23T23:20:17.172Z,8.54
2022-09-23T23:22:45.257Z,8.52
2022-09-23T23:25:13.361Z,8.48
2022-09-23T23:27:41.520Z,8.44
2022-09-23T23:30:10.260Z,8.43
2022-09-23T23:32:38.526Z,8.42
2022-09-23T23:35:07.233Z,8.40
2022-09-23T23:37:35.407Z,8.39
2022-09-23T23:40:05.503Z,8.36
2022-09-23T23:42:34.638Z,8.34
2022-09-23T23:45:02.785Z,8.34
2022-09-23T23:47:31.161Z,8.33
2022-09-23T23:49:59.258Z,8.31
2022-09-23T23:52:27.358Z,8.29
2022-09-23T23:54:55.516Z,8.25
2022-09-23T23:57:23.646Z,8.21
2022-09-23T23:59:51.731Z,8.13
